Downstream station:
SHEF ID: NFSM7 N Fork Spring River nr Purcell, MO
STATION TYPE:
STAGE RIV-FLOW
ft cfs
Ccp-Rev Ccp-Rev
(US/Central)
03/25 00:00 6.56 1175
03/25 01:00 6.50 1150
03/25 02:00 6.42 1116
03/25 03:00 6.36 1088
03/25 04:00 6.29 1053
03/25 05:00 6.23 1023
03/25 06:00 6.16 989
03/25 07:00 6.12 970
03/25 08:00 6.06 942
03/25 09:00 6.00 914
03/25 10:00 5.95 891
03/25 11:00 5.89 863
03/25 12:00 5.83 837
03/25 13:00 5.78 814
03/25 14:00 5.72 788
03/25 15:00 5.68 771
03/25 16:00 5.62 746
03/25 17:00 5.57 725
03/25 18:00 5.51 701
03/25 19:00 5.47 684
03/25 20:00 5.42 664
03/25 21:00 5.37 644
03/25 22:00 5.33 629
03/25 23:00 5.29 613